Portada
METAR-TAF:

METAR-TAF

Aeropuertos :

Aeropuerto Internacional Lynden Pindling

Nasáu, Bahamas

latitud: 25-03N, longitud: 077-28W, altitud: 3 m

Observación

El informe se hizo hace 26 minutos, a las 14:00 UTC
Viento 10 kt del sureste
Temperatura 27°C
Humedad 74%
Presión 1020 hPa
Visibilidad 10 km o más
Nubes dispersas a una altura de 1800 ft
Cielo nuboso a una altura de 4500 ft
Cielo cubierto a una altura de 8000 ft

METAR: MYNN 231400Z 14010KT 9999 SCT018 BKN045 OVC080 27/22 A3011

Hora: 10:26 (14:26 UTC)

Pronóstico

El informe se hizo hace 3 horas y 26 minutos, a las 11:00 UTC
Pronóstico válido del 23 a las 12 UTC al 24 a las 12 UTC
Viento 5 kt del sureste
Visibilidad 10 km o más
Nubes dispersas a una altura de 1800 ft
Cielo nuboso a una altura de 4500 ft

TAF: MYNN 231100Z 2312/2412 14005KT 9999 SCT018 BKN045

Observaciones y pronósticos meteorológicos de más de 4000 aeropuertos (mensajes METAR y TAF).

Los puntos amarillos y rojos representan las estaciones disponibles.

Ponga el ratón en el punto deseado para ver el nombre de la estación.

Haga clic para ver las observaciones y los pronósticos meteorológicos.

Para cambiar el mapa : haga clic en los botones verdes con una cruz de color negro para hacer un zoom, en el botón verde con un guión para alejar o en las flechas verdes para mapas adyacentes.


METAR-TAF: